Thargomindah, Australia
Current Conditions -  °F | °C
As of 3:00 PM on Tuesday 21 Oct 2014 (Local Time) from YBCV Reporting Station
Clear Clear  
Wind Chill: 91°   Ceiling: Unl
Heat Index: 91°   Visibility: 6mi
Dew Point: 41°   Wind: 13mph
Humidity: 17%   Direction: 150°SSE
Pressure: 30.09"   Gusts: NA
Location:  28°S, 143.82°E
Report Text: YBCV 210500Z 15011KT CAVOK 33/05 Q1019
Loading
Personal Weather Stations






























Interactive Weather Map New forecast layout! Learn more

10-Day Weather Forecast

Advertisements
Track Severe Weather on mobile